Time;durP1;ratioP1;P1;durP2;ratioP2;P2;SDS_P1;SDS_P2;PMS_P1;PMS_P2;Temp;Humidity;BMP_temperature;BMP_pressure;BME280_temperature;BME280_humidity;BME280_pressure;Samples;Min_cycle;Max_cycle;Signal;HPM_P1;HPM_P2
2022/12/27 00:01:12;;;;;;;;;3.00;1.25;;;;;;;;5097844;27;45547;-66
2022/12/27 00:03:39;;;;;;;;;1.00;1.00;;;;;;;;5097207;27;47650;-66
2022/12/27 00:06:14;;;;;;;;;2.00;2.00;;;;;;;;5097486;27;45444;-66
2022/12/27 00:08:39;;;;;;;;;1.00;1.00;;;;;;;;5097755;27;45409;-66
2022/12/27 00:11:09;;;;;;;;;1.75;1.25;;;;;;;;5098017;27;45364;-66
2022/12/27 00:13:34;;;;;;;;;2.00;0.00;;;;;;;;5096239;27;46330;-66
2022/12/27 00:16:07;;;;;;;;;1.75;1.00;;;;;;;;5097508;27;45541;-66
2022/12/27 00:18:32;;;;;;;;;1.00;0.00;;;;;;;;5096629;27;45327;-66
2022/12/27 00:20:59;;;;;;;;;2.25;0.50;;;;;;;;5097695;27;45410;-67
2022/12/27 00:23:24;;;;;;;;;0.00;0.00;;;;;;;;5097275;27;45477;-67
2022/12/27 00:25:49;;;;;;;;;1.00;1.00;;;;;;;;5097358;27;45449;-66
2022/12/27 00:28:15;;;;;;;;;2.50;1.50;;;;;;;;5097501;27;45442;-64
2022/12/27 00:30:40;;;;;;;;;0.75;0.75;;;;;;;;5097696;27;45390;-64
2022/12/27 00:33:05;;;;;;;;;2.00;2.00;;;;;;;;5097183;27;45475;-65
2022/12/27 00:35:31;;;;;;;;;1.50;1.50;;;;;;;;5096320;27;45372;-65
2022/12/27 00:37:56;;;;;;;;;1.00;1.00;;;;;;;;5097527;27;45433;-65
2022/12/27 00:40:21;;;;;;;;;1.25;1.25;;;;;;;;5097518;27;45415;-65
2022/12/27 00:42:46;;;;;;;;;2.75;1.00;;;;;;;;5097194;27;46591;-65
2022/12/27 00:45:11;;;;;;;;;2.50;2.25;;;;;;;;5097182;27;45417;-64
2022/12/27 00:47:37;;;;;;;;;0.75;0.75;;;;;;;;5096151;27;45487;-64
2022/12/27 00:50:02;;;;;;;;;0.00;0.00;;;;;;;;5096743;27;45337;-64
2022/12/27 00:52:28;;;;;;;;;6.25;1.00;;;;;;;;5096963;27;46153;-65
2022/12/27 00:54:53;;;;;;;;;3.00;3.00;;;;;;;;5097152;27;45360;-64
2022/12/27 00:57:18;;;;;;;;;1.00;1.00;;;;;;;;5096338;27;45508;-64
2022/12/27 00:59:43;;;;;;;;;0.00;0.00;;;;;;;;5099072;27;45560;-65
2022/12/27 01:02:08;;;;;;;;;2.75;2.00;;;;;;;;5099649;27;46443;-65
2022/12/27 01:04:33;;;;;;;;;3.00;3.00;;;;;;;;5083707;27;45389;-64
2022/12/27 01:06:59;;;;;;;;;1.50;1.00;;;;;;;;5099676;27;45362;-65
2022/12/27 01:09:24;;;;;;;;;2.50;1.50;;;;;;;;5099590;27;45445;-65
2022/12/27 01:11:49;;;;;;;;;1.00;1.00;;;;;;;;5096471;27;46174;-65
2022/12/27 01:14:14;;;;;;;;;1.00;1.00;;;;;;;;5099481;27;45778;-65
2022/12/27 01:16:40;;;;;;;;;2.00;1.00;;;;;;;;5099630;27;45248;-65
2022/12/27 01:19:05;;;;;;;;;1.00;1.00;;;;;;;;5095231;27;45591;-65
2022/12/27 01:21:30;;;;;;;;;2.50;1.00;;;;;;;;5096448;27;45700;-65
2022/12/27 01:23:56;;;;;;;;;1.50;0.00;;;;;;;;5099655;27;45374;-64
2022/12/27 01:26:22;;;;;;;;;1.00;1.00;;;;;;;;5097790;27;45490;-67
2022/12/27 01:28:49;;;;;;;;;2.50;1.00;;;;;;;;5087504;27;45499;-64
2022/12/27 01:31:18;;;;;;;;;1.75;1.00;;;;;;;;5082296;27;46521;-64
2022/12/27 01:33:44;;;;;;;;;3.50;2.00;;;;;;;;5090062;27;45431;-64
2022/12/27 01:36:13;;;;;;;;;2.00;0.50;;;;;;;;5088971;27;45254;-64
2022/12/27 01:38:41;;;;;;;;;2.00;0.25;;;;;;;;5100072;27;45418;-64
2022/12/27 01:42:50;;;;;;;;;5.50;1.00;;;;;;;;5099793;27;46095;-64
2022/12/27 01:43:56;;;;;;;;;1.00;1.00;;;;;;;;5099011;27;45862;-64
2022/12/27 01:46:21;;;;;;;;;3.00;1.00;;;;;;;;5099687;27;45221;-64
2022/12/27 01:48:47;;;;;;;;;4.75;2.00;;;;;;;;5099815;27;45170;-64
2022/12/27 01:51:12;;;;;;;;;0.75;0.75;;;;;;;;5099473;27;45470;-64
2022/12/27 01:53:43;;;;;;;;;1.00;0.25;;;;;;;;5098623;27;45298;-64
2022/12/27 01:56:11;;;;;;;;;2.00;2.00;;;;;;;;5099188;27;45252;-64
2022/12/27 01:58:40;;;;;;;;;2.75;1.00;;;;;;;;5098848;27;45217;-64
2022/12/27 02:01:09;;;;;;;;;1.00;1.00;;;;;;;;5092766;27;47507;-65
2022/12/27 02:03:38;;;;;;;;;1.25;0.00;;;;;;;;5097487;27;45455;-65
2022/12/27 02:06:04;;;;;;;;;1.00;1.00;;;;;;;;5098296;27;45287;-65
2022/12/27 02:08:48;;;;;;;;;3.50;1.50;;;;;;;;5079498;27;45756;-64
2022/12/27 02:11:14;;;;;;;;;0.00;0.00;;;;;;;;5098291;27;47080;-65
2022/12/27 02:13:41;;;;;;;;;0.75;0.50;;;;;;;;5098259;27;45469;-65
2022/12/27 02:16:14;;;;;;;;;1.00;1.00;;;;;;;;5099002;27;45481;-65
2022/12/27 02:18:39;;;;;;;;;2.50;1.00;;;;;;;;5096752;27;45411;-64
2022/12/27 02:21:23;;;;;;;;;0.00;0.00;;;;;;;;5098272;27;45596;-64
2022/12/27 02:24:04;;;;;;;;;1.50;1.00;;;;;;;;5096895;27;45529;-64
2022/12/27 02:26:41;;;;;;;;;0.00;0.00;;;;;;;;5098637;27;45267;-64
2022/12/27 02:29:21;;;;;;;;;3.00;1.00;;;;;;;;5096962;27;45406;-64
2022/12/27 02:31:58;;;;;;;;;1.00;1.00;;;;;;;;5097476;27;47526;-64
2022/12/27 02:34:25;;;;;;;;;1.25;1.00;;;;;;;;5095363;27;45463;-64
2022/12/27 02:36:54;;;;;;;;;2.00;0.00;;;;;;;;5098652;27;45430;-64
2022/12/27 02:39:21;;;;;;;;;3.00;0.00;;;;;;;;5098436;27;45303;-64
2022/12/27 02:53:04;;;;;;;;;0.00;0.00;;;;;;;;5098849;27;45845;-66
2022/12/27 02:57:07;;;;;;;;;0.00;0.00;;;;;;;;5098849;27;45439;-67
2022/12/27 02:58:39;;;;;;;;;0.00;0.00;;;;;;;;5097763;27;45594;-67
2022/12/27 03:04:11;;;;;;;;;2.50;0.25;;;;;;;;5098546;27;45919;-66
2022/12/27 03:06:45;;;;;;;;;0.00;0.00;;;;;;;;5098425;27;45386;-65
2022/12/27 03:09:10;;;;;;;;;2.25;0.00;;;;;;;;5098731;27;45443;-65
2022/12/27 03:17:40;;;;;;;;;1.25;0.00;;;;;;;;5098591;27;45330;-65
2022/12/27 03:25:36;;;;;;;;;1.75;0.75;;;;;;;;5097877;27;45256;-66
2022/12/27 03:33:35;;;;;;;;;0.00;0.00;;;;;;;;5098575;27;45466;-66
2022/12/27 03:39:14;;;;;;;;;2.00;1.00;;;;;;;;5097970;27;45332;-66
2022/12/27 03:44:28;;;;;;;;;0.25;0.25;;;;;;;;5098229;27;45399;-66
2022/12/27 03:46:58;;;;;;;;;0.00;0.00;;;;;;;;5096710;27;45608;-66
2022/12/27 03:49:23;;;;;;;;;0.00;0.00;;;;;;;;5098106;27;45460;-66
2022/12/27 03:51:56;;;;;;;;;1.25;0.75;;;;;;;;5097719;27;45985;-66
2022/12/27 03:54:25;;;;;;;;;2.00;0.00;;;;;;;;5098235;27;45424;-66
2022/12/27 03:56:58;;;;;;;;;0.25;0.25;;;;;;;;5097799;27;47346;-66
2022/12/27 03:59:23;;;;;;;;;2.00;1.00;;;;;;;;5097643;27;45395;-66
2022/12/27 04:01:48;;;;;;;;;1.75;1.75;;;;;;;;5097498;27;45244;-66
2022/12/27 04:04:14;;;;;;;;;2.25;2.00;;;;;;;;5097998;27;45509;-66
2022/12/27 04:06:39;;;;;;;;;1.75;0.00;;;;;;;;5097364;27;46690;-67
2022/12/27 04:36:22;;;;;;;;;1.75;1.75;;;;;;;;5100268;27;45548;-64
2022/12/27 04:38:48;;;;;;;;;3.75;1.00;;;;;;;;5100776;27;46193;-64
2022/12/27 04:54:58;;;;;;;;;3.50;1.75;;;;;;;;5100958;27;45372;-64
2022/12/27 04:57:24;;;;;;;;;2.50;2.25;;;;;;;;5100729;27;45922;-64
2022/12/27 05:02:53;;;;;;;;;3.00;3.00;;;;;;;;5037531;28;45479;-67
2022/12/27 05:05:19;;;;;;;;;2.25;2.25;;;;;;;;5036802;28;45352;-68
2022/12/27 05:15:56;;;;;;;;;4.25;2.00;;;;;;;;5037414;28;45444;-66
2022/12/27 05:18:21;;;;;;;;;4.75;4.75;;;;;;;;5037739;28;45484;-66
2022/12/27 05:20:46;;;;;;;;;8.00;3.00;;;;;;;;5035991;28;46589;-66
2022/12/27 05:26:06;;;;;;;;;2.75;2.25;;;;;;;;5036935;28;45372;-66
2022/12/27 05:28:31;;;;;;;;;5.25;3.75;;;;;;;;5037512;28;45399;-66
2022/12/27 05:31:01;;;;;;;;;4.75;2.50;;;;;;;;5036672;28;45611;-66
2022/12/27 05:33:26;;;;;;;;;3.75;3.75;;;;;;;;5053731;27;45493;-66
2022/12/27 05:35:52;;;;;;;;;3.50;2.00;;;;;;;;5077521;28;45423;-66
2022/12/27 05:38:17;;;;;;;;;2.00;1.00;;;;;;;;5076727;27;45636;-66
2022/12/27 05:40:42;;;;;;;;;3.50;2.00;;;;;;;;5077334;28;45373;-66
2022/12/27 05:43:07;;;;;;;;;1.00;1.00;;;;;;;;5076810;28;45430;-66
2022/12/27 05:45:33;;;;;;;;;5.25;2.00;;;;;;;;5076333;27;45590;-67
2022/12/27 05:47:58;;;;;;;;;10.50;6.25;;;;;;;;5077407;28;45455;-66
2022/12/27 05:50:24;;;;;;;;;5.50;3.00;;;;;;;;5076985;28;47492;-66
2022/12/27 05:52:49;;;;;;;;;4.00;3.00;;;;;;;;5076923;28;45594;-66
2022/12/27 05:55:14;;;;;;;;;2.75;2.00;;;;;;;;5075902;27;45451;-66
2022/12/27 05:57:39;;;;;;;;;2.50;2.00;;;;;;;;5077329;28;45412;-66
2022/12/27 06:00:05;;;;;;;;;1.75;1.75;;;;;;;;5076831;27;46305;-66
2022/12/27 06:02:30;;;;;;;;;7.25;3.50;;;;;;;;5077149;27;45521;-66
2022/12/27 06:04:55;;;;;;;;;1.00;1.00;;;;;;;;5079321;28;45340;-67
2022/12/27 06:07:21;;;;;;;;;3.00;3.00;;;;;;;;5079057;28;45386;-66
2022/12/27 06:09:46;;;;;;;;;6.25;4.25;;;;;;;;5079098;28;46556;-67
2022/12/27 06:12:11;;;;;;;;;4.75;4.00;;;;;;;;5078994;28;45434;-66
2022/12/27 06:14:36;;;;;;;;;1.25;1.25;;;;;;;;5078979;28;45398;-66
2022/12/27 06:17:01;;;;;;;;;2.25;2.25;;;;;;;;5079287;28;45338;-66
2022/12/27 06:19:27;;;;;;;;;7.00;6.67;;;;;;;;5092625;27;46564;-66
2022/12/27 06:21:52;;;;;;;;;6.50;3.75;;;;;;;;5099202;27;45596;-66
2022/12/27 06:24:17;;;;;;;;;9.75;9.75;;;;;;;;5099294;27;45280;-66
2022/12/27 06:26:42;;;;;;;;;7.50;6.25;;;;;;;;5099350;27;45459;-65
2022/12/27 06:29:10;;;;;;;;;7.75;3.50;;;;;;;;5099169;27;46467;-66
2022/12/27 06:31:35;;;;;;;;;5.75;2.50;;;;;;;;5099253;27;45500;-66
2022/12/27 06:34:00;;;;;;;;;3.75;2.00;;;;;;;;5098300;27;45379;-66
2022/12/27 06:36:27;;;;;;;;;2.00;2.00;;;;;;;;5099388;27;45496;-66
2022/12/27 06:38:52;;;;;;;;;2.00;2.00;;;;;;;;5098701;27;45690;-66
2022/12/27 06:41:18;;;;;;;;;2.75;2.75;;;;;;;;5099070;27;45173;-66
2022/12/27 06:43:43;;;;;;;;;2.00;2.00;;;;;;;;5098997;27;45474;-66
2022/12/27 06:46:09;;;;;;;;;16.75;8.50;;;;;;;;5097620;27;45382;-66
2022/12/27 06:48:35;;;;;;;;;3.25;2.25;;;;;;;;5098775;27;46540;-66
2022/12/27 06:51:07;;;;;;;;;5.75;3.75;;;;;;;;5098752;27;45939;-66
2022/12/27 06:53:32;;;;;;;;;6.75;3.00;;;;;;;;5098622;27;45454;-66
2022/12/27 06:56:02;;;;;;;;;7.00;5.50;;;;;;;;5098289;27;45285;-66
2022/12/27 06:58:28;;;;;;;;;6.00;3.50;;;;;;;;5098599;27;45555;-66
2022/12/27 07:00:53;;;;;;;;;4.50;3.00;;;;;;;;5097484;27;45493;-66
2022/12/27 07:03:18;;;;;;;;;5.00;3.50;;;;;;;;5098673;27;45169;-66
2022/12/27 07:05:43;;;;;;;;;4.00;2.25;;;;;;;;5098962;27;45210;-66
2022/12/27 07:08:09;;;;;;;;;0.75;0.75;;;;;;;;5098256;27;46124;-67
2022/12/27 07:10:34;;;;;;;;;8.00;3.00;;;;;;;;5098420;27;45364;-66
2022/12/27 07:13:00;;;;;;;;;6.00;3.00;;;;;;;;5098807;27;45697;-66
2022/12/27 07:15:25;;;;;;;;;8.00;7.25;;;;;;;;5098748;27;45301;-67
2022/12/27 07:17:50;;;;;;;;;7.25;3.25;;;;;;;;5097357;27;46608;-66
2022/12/27 07:20:16;;;;;;;;;7.50;3.00;;;;;;;;5098496;27;45364;-66
2022/12/27 07:22:41;;;;;;;;;2.00;2.00;;;;;;;;5098145;27;45472;-66
2022/12/27 07:25:06;;;;;;;;;3.00;1.75;;;;;;;;5098539;27;45456;-66
2022/12/27 07:27:32;;;;;;;;;4.00;3.50;;;;;;;;5098222;27;45382;-66
2022/12/27 07:29:57;;;;;;;;;3.25;3.00;;;;;;;;5098395;27;45334;-66
2022/12/27 07:32:22;;;;;;;;;5.50;3.00;;;;;;;;5098358;27;45432;-66
2022/12/27 07:34:48;;;;;;;;;2.75;2.50;;;;;;;;5097490;27;45299;-66
2022/12/27 07:37:13;;;;;;;;;3.75;3.75;;;;;;;;5098047;27;46441;-66
2022/12/27 07:39:38;;;;;;;;;1.75;1.75;;;;;;;;5097954;27;45371;-66
2022/12/27 07:42:03;;;;;;;;;5.50;5.00;;;;;;;;5098323;27;45255;-66
2022/12/27 07:44:28;;;;;;;;;8.00;6.00;;;;;;;;5098270;27;45850;-66
2022/12/27 07:46:53;;;;;;;;;8.33;8.00;;;;;;;;5097804;27;46563;-66
2022/12/27 07:49:19;;;;;;;;;6.00;4.00;;;;;;;;5097457;27;45412;-66
2022/12/27 07:51:44;;;;;;;;;7.00;4.00;;;;;;;;5097978;27;45322;-66
2022/12/27 07:54:09;;;;;;;;;9.50;8.00;;;;;;;;5097986;27;45527;-66
2022/12/27 07:56:34;;;;;;;;;6.67;6.00;;;;;;;;5097690;27;46008;-66
2022/12/27 07:59:00;;;;;;;;;6.00;4.00;;;;;;;;5097925;27;45804;-66
2022/12/27 08:01:27;;;;;;;;;8.50;7.50;;;;;;;;5097773;27;45332;-66
2022/12/27 08:03:52;;;;;;;;;10.50;8.25;;;;;;;;5097880;27;45403;-66
2022/12/27 08:06:23;;;;;;;;;11.33;8.33;;;;;;;;5097344;27;46430;-66
2022/12/27 08:08:48;;;;;;;;;8.00;8.00;;;;;;;;5095841;27;45508;-66
2022/12/27 08:11:13;;;;;;;;;9.00;6.50;;;;;;;;5097784;27;45437;-66
2022/12/27 08:13:39;;;;;;;;;9.50;7.25;;;;;;;;5097907;27;45333;-66
2022/12/27 08:16:05;;;;;;;;;8.00;2.25;;;;;;;;5097620;27;45712;-66
2022/12/27 08:18:30;;;;;;;;;8.00;7.00;;;;;;;;5097509;27;45341;-66
2022/12/27 08:20:55;;;;;;;;;8.75;6.00;;;;;;;;5097627;27;45529;-66
2022/12/27 08:23:21;;;;;;;;;9.00;5.25;;;;;;;;5096855;27;45454;-67
2022/12/27 08:25:46;;;;;;;;;10.75;6.75;;;;;;;;5096198;27;46486;-66
2022/12/27 08:28:12;;;;;;;;;16.00;11.33;;;;;;;;5097317;27;45402;-67
2022/12/27 08:30:38;;;;;;;;;5.00;4.00;;;;;;;;5097832;27;45348;-67
2022/12/27 08:33:04;;;;;;;;;4.75;4.00;;;;;;;;5097580;27;45380;-67
2022/12/27 08:35:29;;;;;;;;;2.50;1.50;;;;;;;;5097217;27;46918;-67
2022/12/27 08:37:54;;;;;;;;;9.50;4.50;;;;;;;;5097350;27;45421;-66
2022/12/27 08:40:20;;;;;;;;;7.00;7.00;;;;;;;;5096602;27;45373;-67
2022/12/27 08:42:45;;;;;;;;;8.67;8.00;;;;;;;;5097701;27;45402;-67
2022/12/27 08:45:10;;;;;;;;;4.00;4.00;;;;;;;;5096869;27;47020;-66
2022/12/27 08:47:36;;;;;;;;;7.25;2.50;;;;;;;;5097080;27;45265;-67
2022/12/27 08:50:01;;;;;;;;;3.25;3.25;;;;;;;;5097404;27;45468;-66
2022/12/27 08:52:26;;;;;;;;;7.00;3.00;;;;;;;;5097301;27;45444;-66
2022/12/27 08:54:52;;;;;;;;;9.50;7.50;;;;;;;;5096241;27;46249;-66
2022/12/27 08:57:17;;;;;;;;;7.25;5.75;;;;;;;;5097132;27;45429;-67
2022/12/27 08:59:42;;;;;;;;;9.75;7.50;;;;;;;;5097262;27;45411;-67
2022/12/27 09:02:08;;;;;;;;;8.50;7.00;;;;;;;;5097323;27;45572;-66
2022/12/27 09:04:34;;;;;;;;;7.50;4.75;;;;;;;;5096809;27;45507;-66
2022/12/27 09:06:59;;;;;;;;;3.50;3.50;;;;;;;;5096978;27;45394;-66
2022/12/27 09:09:24;;;;;;;;;7.75;5.25;;;;;;;;5096851;27;45318;-66
2022/12/27 09:11:49;;;;;;;;;7.50;4.75;;;;;;;;5097158;27;45466;-66
2022/12/27 09:14:14;;;;;;;;;8.50;7.00;;;;;;;;5096049;27;46331;-67
2022/12/27 09:16:40;;;;;;;;;5.00;5.00;;;;;;;;5096821;27;45441;-66
2022/12/27 09:19:05;;;;;;;;;10.00;8.67;;;;;;;;5098674;27;45338;-66
2022/12/27 09:21:31;;;;;;;;;10.00;6.50;;;;;;;;5100338;27;45377;-67
2022/12/27 09:23:56;;;;;;;;;7.25;6.00;;;;;;;;5100256;27;46473;-67
2022/12/27 09:26:25;;;;;;;;;12.67;10.67;;;;;;;;5099900;27;45393;-66
2022/12/27 09:28:50;;;;;;;;;5.25;5.25;;;;;;;;5099556;27;45319;-67
2022/12/27 09:31:16;;;;;;;;;7.25;7.00;;;;;;;;5100571;27;45228;-67
2022/12/27 09:33:41;;;;;;;;;9.00;7.75;;;;;;;;5099824;27;46707;-67
2022/12/27 09:36:08;;;;;;;;;8.25;5.00;;;;;;;;5100004;27;45340;-66
2022/12/27 09:38:34;;;;;;;;;12.25;7.00;;;;;;;;5099988;27;45418;-67
2022/12/27 09:41:01;;;;;;;;;13.67;12.33;;;;;;;;5100064;27;45453;-67
2022/12/27 09:43:40;;;;;;;;;5.00;5.00;;;;;;;;5099837;27;47505;-67
2022/12/27 09:46:11;;;;;;;;;9.50;7.00;;;;;;;;5098950;27;45853;-67
2022/12/27 09:48:38;;;;;;;;;9.75;4.75;;;;;;;;5099899;27;45858;-67
2022/12/27 09:51:16;;;;;;;;;7.00;7.00;;;;;;;;5100148;27;45271;-67
2022/12/27 09:53:41;;;;;;;;;5.00;4.00;;;;;;;;5099801;27;46000;-67
2022/12/27 09:56:08;;;;;;;;;9.00;5.00;;;;;;;;5099365;27;45417;-67
2022/12/27 09:58:41;;;;;;;;;9.00;5.00;;;;;;;;5099805;27;45379;-67
2022/12/27 10:01:18;;;;;;;;;4.00;4.00;;;;;;;;5099940;27;45534;-67
2022/12/27 10:03:43;;;;;;;;;19.33;19.33;;;;;;;;5098647;27;46727;-67
2022/12/27 10:06:21;;;;;;;;;11.00;10.00;;;;;;;;5099468;27;45375;-67
2022/12/27 10:08:56;;;;;;;;;6.25;5.00;;;;;;;;5099684;27;45359;-67
2022/12/27 10:11:37;;;;;;;;;5.00;3.75;;;;;;;;5099677;27;45447;-66
2022/12/27 10:14:05;;;;;;;;;4.00;3.00;;;;;;;;5093583;27;45701;-66
2022/12/27 10:16:33;;;;;;;;;4.75;4.75;;;;;;;;5096249;27;45330;-66
2022/12/27 10:19:12;;;;;;;;;2.25;2.25;;;;;;;;5097647;27;45397;-66
2022/12/27 10:21:42;;;;;;;;;5.75;4.00;;;;;;;;5096644;27;45462;-66
2022/12/27 10:24:32;;;;;;;;;5.00;4.00;;;;;;;;5099059;27;45321;-67
2022/12/27 10:26:58;;;;;;;;;5.25;4.75;;;;;;;;5098489;27;45359;-66
2022/12/27 10:29:24;;;;;;;;;5.00;3.50;;;;;;;;5098908;27;45259;-66
2022/12/27 10:31:50;;;;;;;;;6.00;4.75;;;;;;;;5098592;27;45445;-66
2022/12/27 10:34:16;;;;;;;;;5.00;5.00;;;;;;;;5098859;27;45621;-66
2022/12/27 10:36:43;;;;;;;;;7.25;4.00;;;;;;;;5095244;27;45563;-66
2022/12/27 10:39:15;;;;;;;;;3.00;3.00;;;;;;;;5094503;27;45506;-66
2022/12/27 10:41:53;;;;;;;;;5.75;5.00;;;;;;;;5095772;27;45846;-66
2022/12/27 10:44:18;;;;;;;;;19.00;15.00;;;;;;;;5096508;27;46147;-65
2022/12/27 10:46:48;;;;;;;;;8.25;6.25;;;;;;;;5096389;27;45421;-66
2022/12/27 10:49:22;;;;;;;;;8.00;6.50;;;;;;;;5096179;27;45569;-65
2022/12/27 10:51:48;;;;;;;;;8.50;7.00;;;;;;;;5093248;27;45440;-65
2022/12/27 10:54:16;;;;;;;;;5.00;5.00;;;;;;;;5096485;27;46486;-66
2022/12/27 10:56:43;;;;;;;;;4.00;4.00;;;;;;;;5096769;27;45502;-66
2022/12/27 10:59:14;;;;;;;;;7.00;3.75;;;;;;;;5095100;27;45452;-66
2022/12/27 11:01:39;;;;;;;;;5.00;4.25;;;;;;;;5096013;27;45485;-66
2022/12/27 11:04:10;;;;;;;;;5.75;4.50;;;;;;;;5096426;27;45450;-67
2022/12/27 11:06:36;;;;;;;;;5.00;3.50;;;;;;;;5095747;27;45485;-66
2022/12/27 11:09:17;;;;;;;;;6.50;6.00;;;;;;;;5095903;27;45490;-67
2022/12/27 11:11:42;;;;;;;;;5.50;4.00;;;;;;;;5096546;27;45521;-66
2022/12/27 11:14:15;;;;;;;;;6.75;4.50;;;;;;;;5095735;27;45562;-66
2022/12/27 11:16:40;;;;;;;;;5.75;4.00;;;;;;;;5094409;27;45479;-67
2022/12/27 11:19:06;;;;;;;;;5.50;4.75;;;;;;;;5093780;27;45453;-67
2022/12/27 11:21:36;;;;;;;;;6.75;4.00;;;;;;;;5094774;27;45457;-66
2022/12/27 11:24:01;;;;;;;;;10.25;4.50;;;;;;;;5100192;27;46763;-67
2022/12/27 11:26:40;;;;;;;;;4.75;4.25;;;;;;;;5095481;27;45373;-67
2022/12/27 11:29:13;;;;;;;;;4.75;4.00;;;;;;;;5095026;27;45465;-67
2022/12/27 11:31:43;;;;;;;;;3.75;3.75;;;;;;;;5094783;27;45505;-66
2022/12/27 11:34:16;;;;;;;;;7.50;7.00;;;;;;;;5094319;27;45718;-66
2022/12/27 11:36:44;;;;;;;;;7.75;4.50;;;;;;;;5094497;27;45442;-66
2022/12/27 11:39:29;;;;;;;;;6.00;3.75;;;;;;;;5095829;27;45400;-66
2022/12/27 11:41:55;;;;;;;;;4.75;3.75;;;;;;;;5094291;27;45398;-66
2022/12/27 11:44:28;;;;;;;;;5.75;4.00;;;;;;;;5095735;27;45327;-67
2022/12/27 11:46:53;;;;;;;;;6.50;5.00;;;;;;;;5093735;27;45422;-67
2022/12/27 11:49:22;;;;;;;;;4.50;4.00;;;;;;;;5096068;27;45361;-66
2022/12/27 11:52:08;;;;;;;;;5.25;4.00;;;;;;;;5096039;27;45800;-66
2022/12/27 11:54:59;;;;;;;;;7.75;4.50;;;;;;;;5050268;28;46308;-66
2022/12/27 11:57:24;;;;;;;;;3.75;3.25;;;;;;;;5051725;28;45525;-66
2022/12/27 11:59:49;;;;;;;;;4.25;4.00;;;;;;;;5052091;28;45574;-66
2022/12/27 12:02:24;;;;;;;;;6.50;3.50;;;;;;;;5051335;28;46715;-66
2022/12/27 12:05:18;;;;;;;;;5.25;4.00;;;;;;;;5053328;28;47391;-66
2022/12/27 12:07:55;;;;;;;;;5.00;3.50;;;;;;;;5050776;28;45359;-67
2022/12/27 12:10:30;;;;;;;;;5.50;4.50;;;;;;;;5052202;28;45600;-66
2022/12/27 12:12:55;;;;;;;;;3.00;3.00;;;;;;;;5051862;28;45545;-67
2022/12/27 12:15:23;;;;;;;;;4.00;4.00;;;;;;;;5052465;28;45497;-67
2022/12/27 12:17:54;;;;;;;;;4.50;3.00;;;;;;;;5051143;28;45473;-66
2022/12/27 12:20:22;;;;;;;;;5.00;4.00;;;;;;;;5053381;28;45635;-67
2022/12/27 12:23:07;;;;;;;;;3.00;3.00;;;;;;;;5052297;28;45451;-67
2022/12/27 12:25:36;;;;;;;;;13.50;7.75;;;;;;;;5050621;28;46627;-65
2022/12/27 12:28:20;;;;;;;;;5.50;4.00;;;;;;;;5050841;28;45471;-67
2022/12/27 12:31:05;;;;;;;;;7.75;5.00;;;;;;;;5057709;27;45491;-66
2022/12/27 12:33:51;;;;;;;;;5.25;3.25;;;;;;;;5097756;27;45572;-65
2022/12/27 12:36:43;;;;;;;;;3.50;2.00;;;;;;;;5113120;27;45382;-67
2022/12/27 12:39:14;;;;;;;;;2.00;2.00;;;;;;;;5092657;27;45488;-66
2022/12/27 12:41:50;;;;;;;;;3.00;1.25;;;;;;;;5093783;27;45428;-67
2022/12/27 12:44:15;;;;;;;;;4.50;4.50;;;;;;;;5093418;27;45360;-67
2022/12/27 12:46:46;;;;;;;;;4.75;3.00;;;;;;;;5093812;27;45628;-68
2022/12/27 12:49:11;;;;;;;;;4.00;1.25;;;;;;;;5094636;27;45735;-67
2022/12/27 12:51:39;;;;;;;;;6.00;4.75;;;;;;;;5092451;27;45453;-65
2022/12/27 12:54:23;;;;;;;;;2.75;2.00;;;;;;;;5093155;27;45446;-66
2022/12/27 12:57:00;;;;;;;;;4.75;3.00;;;;;;;;5096210;27;46589;-65
2022/12/27 12:59:44;;;;;;;;;2.00;2.00;;;;;;;;5096104;27;45386;-65
2022/12/27 13:02:27;;;;;;;;;2.50;2.50;;;;;;;;5098301;27;45434;-65
2022/12/27 13:05:07;;;;;;;;;7.50;5.50;;;;;;;;5098963;27;45491;-65
2022/12/27 13:07:39;;;;;;;;;4.00;3.00;;;;;;;;5096666;27;45525;-64
2022/12/27 13:10:24;;;;;;;;;3.00;2.00;;;;;;;;5097131;27;45424;-65
2022/12/27 13:13:07;;;;;;;;;5.50;4.50;;;;;;;;5093421;27;45549;-66
2022/12/27 13:15:32;;;;;;;;;2.00;2.00;;;;;;;;5096893;27;45445;-66
2022/12/27 13:18:06;;;;;;;;;7.00;5.25;;;;;;;;5096857;27;45633;-66
2022/12/27 13:20:50;;;;;;;;;3.75;3.75;;;;;;;;5089817;27;45560;-66
2022/12/27 13:23:16;;;;;;;;;5.00;3.25;;;;;;;;5096705;27;46439;-66
2022/12/27 13:25:44;;;;;;;;;4.75;4.00;;;;;;;;5097764;27;45696;-64
2022/12/27 13:28:28;;;;;;;;;25.67;24.33;;;;;;;;5096567;27;45675;-67
2022/12/27 13:31:28;;;;;;;;;4.75;4.25;;;;;;;;5097664;27;45457;-65
2022/12/27 13:34:12;;;;;;;;;11.25;7.25;;;;;;;;5050288;28;45365;-66
2022/12/27 13:37:00;;;;;;;;;7.25;6.00;;;;;;;;5056765;28;45449;-66
2022/12/27 13:39:44;;;;;;;;;6.00;3.75;;;;;;;;5055500;28;45412;-66
2022/12/27 13:42:19;;;;;;;;;13.25;9.75;;;;;;;;5056116;28;45393;-66
2022/12/27 13:44:44;;;;;;;;;15.33;12.67;;;;;;;;5041469;28;45498;-67
2022/12/27 13:47:18;;;;;;;;;23.67;18.00;;;;;;;;5046321;28;45553;-66
2022/12/27 13:49:43;;;;;;;;;12.00;12.00;;;;;;;;5049393;28;45692;-66
2022/12/27 13:52:16;;;;;;;;;10.25;9.75;;;;;;;;5047245;28;45521;-65
2022/12/27 13:54:44;;;;;;;;;19.67;15.00;;;;;;;;5041460;28;45448;-68
2022/12/27 13:57:24;;;;;;;;;15.75;12.00;;;;;;;;5043182;28;45513;-69
2022/12/27 13:59:50;;;;;;;;;15.75;7.00;;;;;;;;5054972;28;46294;-67
2022/12/27 14:02:34;;;;;;;;;11.25;7.50;;;;;;;;5054323;28;45624;-67
2022/12/27 14:05:14;;;;;;;;;12.33;8.67;;;;;;;;5056068;28;45532;-68
2022/12/27 14:07:52;;;;;;;;;10.50;4.75;;;;;;;;5071490;27;48981;-67
2022/12/27 14:10:17;;;;;;;;;17.50;9.00;;;;;;;;5098446;27;45428;-68
2022/12/27 14:12:48;;;;;;;;;15.00;10.50;;;;;;;;5097225;27;45764;-65
2022/12/27 14:15:17;;;;;;;;;10.75;6.25;;;;;;;;5098873;27;45449;-66
2022/12/27 14:17:45;;;;;;;;;7.25;6.25;;;;;;;;5098487;27;45836;-65
2022/12/27 14:20:20;;;;;;;;;6.00;4.00;;;;;;;;5098501;27;46021;-65
2022/12/27 14:23:06;;;;;;;;;13.25;6.50;;;;;;;;5097923;27;45452;-65
2022/12/27 14:25:50;;;;;;;;;3.50;2.00;;;;;;;;5092742;27;45425;-64
2022/12/27 14:28:15;;;;;;;;;7.50;5.50;;;;;;;;5096236;27;45474;-63
2022/12/27 14:30:59;;;;;;;;;7.00;7.00;;;;;;;;5097878;27;46287;-63
2022/12/27 14:33:27;;;;;;;;;10.00;8.00;;;;;;;;5097139;27;45517;-64
2022/12/27 14:36:11;;;;;;;;;11.50;6.50;;;;;;;;5098497;27;45418;-64
2022/12/27 14:38:59;;;;;;;;;11.50;4.50;;;;;;;;5098815;27;45403;-66
2022/12/27 14:41:41;;;;;;;;;10.00;5.75;;;;;;;;5097880;27;45465;-66
2022/12/27 14:44:12;;;;;;;;;6.75;6.75;;;;;;;;5097463;27;45631;-67
2022/12/27 14:46:43;;;;;;;;;6.00;5.50;;;;;;;;5097210;27;45487;-67
2022/12/27 14:49:11;;;;;;;;;6.50;5.00;;;;;;;;5097372;27;45456;-66
2022/12/27 14:52:03;;;;;;;;;9.50;7.50;;;;;;;;5097178;27;46652;-66
2022/12/27 14:54:34;;;;;;;;;9.50;7.00;;;;;;;;5094133;27;45426;-66
2022/12/27 14:57:06;;;;;;;;;15.33;10.67;;;;;;;;5097859;27;45440;-64
2022/12/27 14:59:38;;;;;;;;;4.75;4.75;;;;;;;;5097776;27;45437;-66
2022/12/27 15:02:22;;;;;;;;;10.33;10.33;;;;;;;;5098019;27;46231;-65
2022/12/27 15:04:55;;;;;;;;;6.75;4.00;;;;;;;;5097799;27;45336;-66
2022/12/27 15:07:23;;;;;;;;;8.25;6.25;;;;;;;;5096376;27;45826;-65
2022/12/27 15:09:54;;;;;;;;;4.50;3.00;;;;;;;;5095728;27;46717;-65
2022/12/27 15:12:22;;;;;;;;;19.33;19.00;;;;;;;;5089285;27;45494;-66
2022/12/27 15:14:56;;;;;;;;;2.25;2.25;;;;;;;;5097024;27;45560;-66
2022/12/27 15:17:34;;;;;;;;;5.00;3.50;;;;;;;;5095811;27;45516;-64
2022/12/27 15:19:59;;;;;;;;;5.75;4.25;;;;;;;;5093413;27;45626;-65
2022/12/27 15:22:43;;;;;;;;;6.75;6.00;;;;;;;;5095335;27;46329;-66
2022/12/27 15:25:20;;;;;;;;;5.00;3.50;;;;;;;;5087911;27;45406;-66
2022/12/27 15:27:54;;;;;;;;;3.75;3.00;;;;;;;;5096409;27;45543;-65
2022/12/27 15:30:19;;;;;;;;;5.00;3.50;;;;;;;;5097243;27;45313;-65
2022/12/27 15:32:51;;;;;;;;;4.75;2.25;;;;;;;;5096048;27;45710;-64
2022/12/27 15:35:19;;;;;;;;;2.00;2.00;;;;;;;;5094292;27;45437;-63
2022/12/27 15:37:44;;;;;;;;;6.00;4.00;;;;;;;;5094133;27;46436;-64
2022/12/27 15:40:24;;;;;;;;;3.00;3.00;;;;;;;;5094053;27;46711;-65
2022/12/27 15:42:58;;;;;;;;;4.00;4.00;;;;;;;;5095831;27;46153;-64
2022/12/27 15:45:29;;;;;;;;;6.25;4.75;;;;;;;;5093555;27;45774;-63
2022/12/27 15:47:57;;;;;;;;;4.50;4.50;;;;;;;;5095042;27;45542;-64
2022/12/27 15:50:41;;;;;;;;;5.25;4.50;;;;;;;;5092385;27;45500;-62
2022/12/27 15:53:15;;;;;;;;;6.00;4.50;;;;;;;;5098392;27;46240;-64
2022/12/27 15:56:06;;;;;;;;;5.75;4.75;;;;;;;;5096986;27;45562;-62
2022/12/27 15:58:32;;;;;;;;;7.75;5.00;;;;;;;;5080625;27;45515;-64
2022/12/27 16:01:16;;;;;;;;;4.75;3.25;;;;;;;;5095511;27;46950;-62
2022/12/27 16:03:42;;;;;;;;;4.00;3.00;;;;;;;;5096390;27;45655;-64
2022/12/27 16:06:08;;;;;;;;;6.00;6.00;;;;;;;;5096507;27;45609;-65
2022/12/27 16:08:34;;;;;;;;;5.75;3.75;;;;;;;;5096224;27;45463;-63
2022/12/27 16:11:01;;;;;;;;;7.75;5.75;;;;;;;;5100587;27;46819;-65
2022/12/27 16:13:30;;;;;;;;;4.25;4.00;;;;;;;;5096825;27;46879;-62
2022/12/27 16:15:56;;;;;;;;;2.50;2.50;;;;;;;;5100206;27;45456;-64
2022/12/27 16:18:21;;;;;;;;;6.75;4.50;;;;;;;;5104364;27;45635;-65
2022/12/27 16:20:55;;;;;;;;;8.75;4.00;;;;;;;;5098624;27;45443;-65
2022/12/27 16:23:24;;;;;;;;;6.00;4.00;;;;;;;;5096234;27;47233;-65
2022/12/27 16:25:59;;;;;;;;;5.00;3.50;;;;;;;;5096328;27;45312;-65
2022/12/27 16:28:26;;;;;;;;;4.50;4.50;;;;;;;;5098937;27;45514;-63